Flight Track Log - Related Links

Times and Time Zones

All times are in EDT time to prevent confusion due to time zone crossing. See the PDT4356 flight status page for this flight to view local times or setup timezone preferences in your user account.

Time Position Orientation Groundspeed Altitude Reporting Facility
EDT Latitude Longitude Course Direction KTS MPH feet Rate Location/Type
Sat 09:02:17 AM 38.1833 -78.4333 90° East 157 181 2,500  Level Potomac TRACON
Sat 09:03:10 AM 38.2031 -78.3925 58° Northeast 172 198 3,500 1,274 Climbing Washington Center
Sat 09:04:10 AM 38.1769 -78.3572 133° Southeast 143 165 4,900 1,240 Climbing Washington Center
Sat 09:05:00 AM 38.0000 -78.1150 90° East  Level FlightAware Approximate
Sat 09:05:11 AM 38.1547 -78.3222 129° Southeast 135 155 6,000  Level Washington Center
Sat 09:06:00 AM 38.0000 -78.0198 90° East  Level FlightAware Approximate
Sat 09:06:11 AM 38.1264 -78.2842 133° Southeast 137 158 7,200  Level Washington Center
Sat 09:07:00 AM 38.0000 -77.9246 90° East  Level FlightAware Approximate
Sat 09:07:09 AM 38.0981 -78.2489 136° Southeast 137 158 8,200  Level Washington Center
Sat 09:08:10 AM 38.0675 -78.2108 136° Southeast 147 169 9,300 934 Climbing Washington Center
Sat 09:09:11 AM 38.0369 -78.1781 140° Southeast 153 176 10,100 908 Climbing Washington Center
Sat 09:10:09 AM 38.0067 -78.1297 128° Southeast 165 190 11,100 1,059 Climbing Washington Center
Sat 09:11:10 AM 38.0100 -78.0664 86° East 157 181 12,200 992 Climbing Washington Center
Sat 09:12:10 AM 38.0094 -78.0033 91° East 157 181 13,100 843 Climbing Washington Center
Sat 09:13:11 AM 38.0083 -77.9425 91° East 163 188 13,900 958 Climbing Washington Center
Sat 09:14:09 AM 38.0036 -77.8686 95° East 180 207 15,000 559 Climbing Washington Center
Sat 09:15:09 AM 38.0028 -77.8000 91° East 186 214 15,000  Level Washington Center
Sat 09:16:10 AM 37.9981 -77.7183 94° East 202 232 15,000  Level Washington Center
Sat 09:17:10 AM 37.9933 -77.6311 94° East 224 258 15,000  Level Washington Center
Sat 09:18:11 AM 37.9947 -77.5442 89° East 236 272 15,000  Level Washington Center
Sat 09:19:09 AM 37.9961 -77.4572 89° East 241 277 15,000  Level Washington Center
Sat 09:20:09 AM 37.9933 -77.3678 92° East 246 283 15,000  Level Washington Center
Sat 09:21:10 AM 37.9883 -77.2781 94° East 251 289 15,000  Level Washington Center
Sat 09:22:10 AM 37.9833 -77.1908 94° East 256 295 15,000  Level Washington Center
Sat 09:23:11 AM 37.9781 -77.1014 94° East 256 295 15,000  Level Washington Center
Sat 09:24:11 AM 37.9750 -77.0142 93° East 256 295 15,000  Level Washington Center
Sat 09:25:08 AM 37.9739 -76.9272 91° East 256 295 15,000  Level Washington Center
Sat 09:26:09 AM 37.9728 -76.8378 91° East 256 295 15,000  Level Washington Center
Sat 09:27:09 AM 38.0194 -76.7725 48° Northeast 232 267 15,000  Level Washington Center
Sat 09:28:11 AM 38.0636 -76.7100 48° Northeast 227 261 15,000 -246 Level Washington Center
Sat 09:29:11 AM 38.1122 -76.6472 45° Northeast 239 275 14,500 -559 Descending Washington Center
Sat 09:30:09 AM 38.1586 -76.5767 50° Northeast 244 281 13,900 -655 Descending Washington Center
Sat 09:31:10 AM 38.2094 -76.5061 47° Northeast 250 288 13,200 -694 Descending Washington Center
Sat 09:32:10 AM 38.2619 -76.4353 47° Northeast 261 300 12,500 -650 Descending Washington Center
Sat 09:33:10 AM 38.3042 -76.3828 44° Northeast 267 307 11,900 -700 Descending Washington Center
Sat 09:34:10 AM 38.3711 -76.3278 33° Northeast 261 300 11,100 -793 Descending Washington Center
Sat 09:35:11 AM 38.4339 -76.2728 34° Northeast 261 300 10,300 -800 Descending Washington Center
Sat 09:36:10 AM 38.4928 -76.2203 35° Northeast 261 300 9,500 -655 Descending Washington Center
Sat 09:37:10 AM 38.5556 -76.1519 40° Northeast 266 306 9,000 -248 Descending Washington Center
Sat 09:38:11 AM 38.6119 -76.1044 33° Northeast 266 306 9,000  Level Washington Center
Sat 09:39:12 AM 38.6622 -76.0542 38° Northeast 246 283 9,000  Level Washington Center
Sat 09:40:10 AM 38.7083 -75.9986 43° Northeast 226 260 9,000 -153 Level Washington Center
Sat 09:41:10 AM 38.7439 -75.9297 56° Northeast 220 253 8,700 -397 Descending Washington Center
Sat 09:42:11 AM 38.7839 -75.8581 54° Northeast 234 269 8,200 -353 Descending Washington Center
Sat 09:43:09 AM 38.8236 -75.7861 55° Northeast 245 282 8,000 -202 Descending Washington Center
Sat 09:44:10 AM 38.8633 -75.7142 55° Northeast 245 282 7,800 -492 Descending Washington Center
Sat 09:45:11 AM 38.9008 -75.6369 58° Northeast 245 282 7,000 -397 Descending Washington Center
Sat 09:46:11 AM 38.9425 -75.5675 52° Northeast 245 282 7,000  Level Washington Center
Sat 09:47:11 AM 38.9778 -75.4981 57° Northeast 240 276 7,000  Level Washington Center
Sat 09:48:09 AM 39.0153 -75.4314 54° Northeast 240 276 7,000  Level Washington Center
Sat 09:49:10 AM 39.0486 -75.3592 59° Northeast 240 276 7,000  Level Washington Center
Sat 09:50:10 AM 39.0900 -75.2919 52° Northeast 234 269 7,000  Level Washington Center
Sat 09:51:11 AM 39.1253 -75.2222 57° Northeast 234 269 7,000 -416 Level Washington Center
Sat 09:53:00 AM 39.1691 -75.0956 54° Northeast  Level FlightAware Approximate
Sat 09:54:15 AM 39.3000 -75.1000 54° Northeast 243 280 5,300  Level Philadelphia TRACON
Sat 09:55:10 AM 39.3667 -75.0667 21° North 242 278 4,700 -678 Descending Philadelphia TRACON
Sat 09:56:10 AM 39.4333 -75.0500 11° North 246 283 4,000 -333 Descending Philadelphia TRACON
Sat 09:57:16 AM 39.5000 -75.0833 339° North 218 251 4,000  Level Philadelphia TRACON
Sat 09:58:10 AM 39.5500 -75.1000 346° North 216 249 4,000  Level Philadelphia TRACON
Sat 09:59:10 AM 39.6000 -75.1333 333° Northwest 212 244 4,000 -350 Level Philadelphia TRACON
Sat 10:00:10 AM 39.6500 -75.1500 346° North 176 203 3,300 -500 Descending Philadelphia TRACON
Sat 10:01:10 AM 39.7000 -75.1667 346° North 184 212 3,000 -571 Descending Philadelphia TRACON
Sat 10:02:16 AM 39.7500 -75.1667 360° North 179 206 2,100 -700 Descending Philadelphia TRACON
Sat 10:03:10 AM 39.8000 -75.2000 333° Northwest 162 186 1,600 -500 Descending Philadelphia TRACON
Sat 10:04:04 AM 39.8333 -75.2000 360° North 125 144 1,200 -694 Descending Philadelphia TRACON
Sat 10:05:11 AM 39.8667 -75.2167 339° North 128 147 200 -896 Descending Philadelphia TRACON

Login

Don't have an account? Register now (free) for customized features, flight alerts, and more!